sensor_id;sensor_type;location;lat;lon;timestamp;P1;durP1;ratioP1;P2;durP2;ratioP2
11481;SDS011;5797;51.662;6.748;2023-07-22T00:01:33;7.73;;;5.67;;
11481;SDS011;5797;51.662;6.748;2023-07-22T00:04:05;8.83;;;5.50;;
11481;SDS011;5797;51.662;6.748;2023-07-22T00:06:34;9.67;;;5.47;;
11481;SDS011;5797;51.662;6.748;2023-07-22T00:09:03;12.27;;;6.47;;
11481;SDS011;5797;51.662;6.748;2023-07-22T00:11:33;10.40;;;5.93;;
11481;SDS011;5797;51.662;6.748;2023-07-22T00:14:03;9.97;;;5.93;;
11481;SDS011;5797;51.662;6.748;2023-07-22T00:16:35;10.17;;;6.27;;
11481;SDS011;5797;51.662;6.748;2023-07-22T00:19:05;13.43;;;6.90;;
11481;SDS011;5797;51.662;6.748;2023-07-22T00:21:35;11.23;;;6.50;;
11481;SDS011;5797;51.662;6.748;2023-07-22T00:24:06;11.83;;;6.77;;
11481;SDS011;5797;51.662;6.748;2023-07-22T00:26:36;10.77;;;6.33;;
11481;SDS011;5797;51.662;6.748;2023-07-22T00:29:07;11.73;;;6.70;;
11481;SDS011;5797;51.662;6.748;2023-07-22T00:31:38;11.17;;;6.40;;
11481;SDS011;5797;51.662;6.748;2023-07-22T00:34:09;11.00;;;6.60;;
11481;SDS011;5797;51.662;6.748;2023-07-22T00:36:39;11.70;;;6.93;;
11481;SDS011;5797;51.662;6.748;2023-07-22T00:39:09;14.93;;;7.30;;
11481;SDS011;5797;51.662;6.748;2023-07-22T00:41:41;13.93;;;7.20;;
11481;SDS011;5797;51.662;6.748;2023-07-22T00:44:11;12.43;;;6.97;;
11481;SDS011;5797;51.662;6.748;2023-07-22T00:46:42;9.83;;;6.60;;
11481;SDS011;5797;51.662;6.748;2023-07-22T00:49:10;12.83;;;7.33;;
11481;SDS011;5797;51.662;6.748;2023-07-22T00:51:41;12.93;;;7.47;;
11481;SDS011;5797;51.662;6.748;2023-07-22T00:54:10;9.77;;;6.63;;
11481;SDS011;5797;51.662;6.748;2023-07-22T00:56:39;11.23;;;7.27;;
11481;SDS011;5797;51.662;6.748;2023-07-22T00:59:09;11.97;;;7.03;;
11481;SDS011;5797;51.662;6.748;2023-07-22T01:01:37;12.13;;;7.50;;
11481;SDS011;5797;51.662;6.748;2023-07-22T01:04:08;12.93;;;6.73;;
11481;SDS011;5797;51.662;6.748;2023-07-22T01:06:37;14.00;;;7.97;;
11481;SDS011;5797;51.662;6.748;2023-07-22T01:09:06;11.27;;;7.30;;
11481;SDS011;5797;51.662;6.748;2023-07-22T01:11:37;13.83;;;7.13;;
11481;SDS011;5797;51.662;6.748;2023-07-22T01:14:07;11.27;;;7.07;;
11481;SDS011;5797;51.662;6.748;2023-07-22T01:16:38;12.97;;;7.10;;
11481;SDS011;5797;51.662;6.748;2023-07-22T01:19:11;14.83;;;7.33;;
11481;SDS011;5797;51.662;6.748;2023-07-22T01:21:44;11.77;;;7.03;;
11481;SDS011;5797;51.662;6.748;2023-07-22T01:24:17;13.80;;;7.43;;
11481;SDS011;5797;51.662;6.748;2023-07-22T01:26:47;13.43;;;7.97;;
11481;SDS011;5797;51.662;6.748;2023-07-22T01:29:16;10.33;;;6.93;;
11481;SDS011;5797;51.662;6.748;2023-07-22T01:31:46;13.43;;;7.37;;
11481;SDS011;5797;51.662;6.748;2023-07-22T01:34:18;12.37;;;7.17;;
11481;SDS011;5797;51.662;6.748;2023-07-22T01:36:47;13.73;;;6.80;;
11481;SDS011;5797;51.662;6.748;2023-07-22T01:39:18;11.67;;;6.60;;
11481;SDS011;5797;51.662;6.748;2023-07-22T01:41:47;12.13;;;6.97;;
11481;SDS011;5797;51.662;6.748;2023-07-22T01:44:17;12.07;;;6.77;;
11481;SDS011;5797;51.662;6.748;2023-07-22T01:46:47;10.73;;;6.80;;
11481;SDS011;5797;51.662;6.748;2023-07-22T01:49:17;9.80;;;6.70;;
11481;SDS011;5797;51.662;6.748;2023-07-22T01:51:47;15.40;;;7.00;;
11481;SDS011;5797;51.662;6.748;2023-07-22T01:54:19;14.50;;;7.07;;
11481;SDS011;5797;51.662;6.748;2023-07-22T01:56:49;9.90;;;6.00;;
11481;SDS011;5797;51.662;6.748;2023-07-22T01:59:19;11.37;;;7.00;;
11481;SDS011;5797;51.662;6.748;2023-07-22T02:01:48;10.93;;;7.10;;
11481;SDS011;5797;51.662;6.748;2023-07-22T02:04:18;15.07;;;6.47;;
11481;SDS011;5797;51.662;6.748;2023-07-22T02:06:48;9.77;;;6.47;;
11481;SDS011;5797;51.662;6.748;2023-07-22T02:09:19;10.13;;;6.20;;
11481;SDS011;5797;51.662;6.748;2023-07-22T02:11:49;14.57;;;6.73;;
11481;SDS011;5797;51.662;6.748;2023-07-22T02:14:18;9.90;;;5.90;;
11481;SDS011;5797;51.662;6.748;2023-07-22T02:16:48;12.53;;;6.73;;
11481;SDS011;5797;51.662;6.748;2023-07-22T02:19:18;9.80;;;5.63;;
11481;SDS011;5797;51.662;6.748;2023-07-22T02:21:48;10.30;;;6.87;;
11481;SDS011;5797;51.662;6.748;2023-07-22T02:24:19;13.67;;;6.90;;
11481;SDS011;5797;51.662;6.748;2023-07-22T02:26:50;11.40;;;6.33;;
11481;SDS011;5797;51.662;6.748;2023-07-22T02:29:20;9.97;;;5.97;;
11481;SDS011;5797;51.662;6.748;2023-07-22T02:31:50;8.13;;;5.93;;
11481;SDS011;5797;51.662;6.748;2023-07-22T02:34:19;12.77;;;6.70;;
11481;SDS011;5797;51.662;6.748;2023-07-22T02:36:49;10.23;;;6.93;;
11481;SDS011;5797;51.662;6.748;2023-07-22T02:39:20;12.77;;;7.03;;
11481;SDS011;5797;51.662;6.748;2023-07-22T02:41:49;9.50;;;6.37;;
11481;SDS011;5797;51.662;6.748;2023-07-22T02:44:19;14.83;;;6.70;;
11481;SDS011;5797;51.662;6.748;2023-07-22T02:46:48;11.27;;;6.90;;
11481;SDS011;5797;51.662;6.748;2023-07-22T02:49:18;13.07;;;6.60;;
11481;SDS011;5797;51.662;6.748;2023-07-22T02:51:47;14.43;;;6.80;;
11481;SDS011;5797;51.662;6.748;2023-07-22T02:54:16;12.50;;;6.23;;
11481;SDS011;5797;51.662;6.748;2023-07-22T02:56:47;10.57;;;6.63;;
11481;SDS011;5797;51.662;6.748;2023-07-22T02:59:17;13.30;;;6.83;;
11481;SDS011;5797;51.662;6.748;2023-07-22T03:01:47;10.53;;;6.33;;
11481;SDS011;5797;51.662;6.748;2023-07-22T03:04:17;9.80;;;6.37;;
11481;SDS011;5797;51.662;6.748;2023-07-22T03:06:47;11.07;;;7.20;;
11481;SDS011;5797;51.662;6.748;2023-07-22T03:09:17;12.47;;;6.43;;
11481;SDS011;5797;51.662;6.748;2023-07-22T03:11:50;10.03;;;6.20;;
11481;SDS011;5797;51.662;6.748;2023-07-22T03:14:21;13.77;;;7.07;;
11481;SDS011;5797;51.662;6.748;2023-07-22T03:16:51;13.67;;;7.13;;
11481;SDS011;5797;51.662;6.748;2023-07-22T03:19:21;12.83;;;7.10;;
11481;SDS011;5797;51.662;6.748;2023-07-22T03:21:51;15.43;;;7.60;;
11481;SDS011;5797;51.662;6.748;2023-07-22T03:24:20;13.80;;;6.97;;
11481;SDS011;5797;51.662;6.748;2023-07-22T03:26:51;10.43;;;6.80;;
11481;SDS011;5797;51.662;6.748;2023-07-22T03:29:20;11.23;;;6.40;;
11481;SDS011;5797;51.662;6.748;2023-07-22T03:31:52;11.40;;;6.63;;
11481;SDS011;5797;51.662;6.748;2023-07-22T03:34:21;13.83;;;7.00;;
11481;SDS011;5797;51.662;6.748;2023-07-22T03:36:50;11.43;;;7.20;;
11481;SDS011;5797;51.662;6.748;2023-07-22T03:39:19;10.97;;;6.87;;
11481;SDS011;5797;51.662;6.748;2023-07-22T03:41:50;11.60;;;6.97;;
11481;SDS011;5797;51.662;6.748;2023-07-22T03:44:20;11.87;;;7.03;;
11481;SDS011;5797;51.662;6.748;2023-07-22T03:46:50;13.93;;;7.20;;
11481;SDS011;5797;51.662;6.748;2023-07-22T03:49:20;11.27;;;6.40;;
11481;SDS011;5797;51.662;6.748;2023-07-22T03:51:50;12.47;;;6.60;;
11481;SDS011;5797;51.662;6.748;2023-07-22T03:54:19;12.30;;;7.43;;
11481;SDS011;5797;51.662;6.748;2023-07-22T03:56:48;15.10;;;7.23;;
11481;SDS011;5797;51.662;6.748;2023-07-22T03:59:19;10.97;;;6.60;;
11481;SDS011;5797;51.662;6.748;2023-07-22T04:01:49;12.77;;;7.23;;
11481;SDS011;5797;51.662;6.748;2023-07-22T04:04:18;13.93;;;6.77;;
11481;SDS011;5797;51.662;6.748;2023-07-22T04:06:48;12.17;;;6.73;;
11481;SDS011;5797;51.662;6.748;2023-07-22T04:09:17;11.90;;;6.87;;
11481;SDS011;5797;51.662;6.748;2023-07-22T04:11:47;10.17;;;6.40;;
11481;SDS011;5797;51.662;6.748;2023-07-22T04:14:16;12.00;;;6.27;;
11481;SDS011;5797;51.662;6.748;2023-07-22T04:16:47;12.13;;;6.27;;
11481;SDS011;5797;51.662;6.748;2023-07-22T04:19:16;14.97;;;6.93;;
11481;SDS011;5797;51.662;6.748;2023-07-22T04:21:46;11.87;;;7.00;;
11481;SDS011;5797;51.662;6.748;2023-07-22T04:24:15;10.57;;;6.13;;
11481;SDS011;5797;51.662;6.748;2023-07-22T04:26:45;9.90;;;6.20;;
11481;SDS011;5797;51.662;6.748;2023-07-22T04:29:14;13.00;;;6.37;;
11481;SDS011;5797;51.662;6.748;2023-07-22T04:31:42;13.23;;;6.77;;
11481;SDS011;5797;51.662;6.748;2023-07-22T04:34:13;11.50;;;6.67;;
11481;SDS011;5797;51.662;6.748;2023-07-22T04:36:42;9.23;;;5.97;;
11481;SDS011;5797;51.662;6.748;2023-07-22T04:39:12;11.33;;;6.13;;
11481;SDS011;5797;51.662;6.748;2023-07-22T04:41:40;12.67;;;7.07;;
11481;SDS011;5797;51.662;6.748;2023-07-22T04:44:09;10.20;;;6.03;;
11481;SDS011;5797;51.662;6.748;2023-07-22T04:46:38;11.73;;;6.43;;
11481;SDS011;5797;51.662;6.748;2023-07-22T04:49:08;11.53;;;6.77;;
11481;SDS011;5797;51.662;6.748;2023-07-22T04:51:38;11.63;;;6.67;;
11481;SDS011;5797;51.662;6.748;2023-07-22T04:54:07;11.60;;;6.77;;
11481;SDS011;5797;51.662;6.748;2023-07-22T04:56:36;14.90;;;7.60;;
11481;SDS011;5797;51.662;6.748;2023-07-22T04:59:05;10.83;;;6.37;;
11481;SDS011;5797;51.662;6.748;2023-07-22T05:01:34;9.07;;;5.87;;
11481;SDS011;5797;51.662;6.748;2023-07-22T05:04:03;12.10;;;6.90;;
11481;SDS011;5797;51.662;6.748;2023-07-22T05:06:32;11.90;;;6.87;;
11481;SDS011;5797;51.662;6.748;2023-07-22T05:09:03;11.73;;;6.17;;
11481;SDS011;5797;51.662;6.748;2023-07-22T05:11:32;16.40;;;7.53;;
11481;SDS011;5797;51.662;6.748;2023-07-22T05:14:01;12.17;;;6.67;;
11481;SDS011;5797;51.662;6.748;2023-07-22T05:16:30;12.57;;;7.13;;
11481;SDS011;5797;51.662;6.748;2023-07-22T05:18:59;13.40;;;7.33;;
11481;SDS011;5797;51.662;6.748;2023-07-22T05:21:28;10.93;;;7.00;;
11481;SDS011;5797;51.662;6.748;2023-07-22T05:23:57;10.00;;;6.93;;
11481;SDS011;5797;51.662;6.748;2023-07-22T05:26:27;11.47;;;6.67;;
11481;SDS011;5797;51.662;6.748;2023-07-22T05:28:55;10.37;;;6.33;;
11481;SDS011;5797;51.662;6.748;2023-07-22T05:31:24;12.07;;;6.80;;
11481;SDS011;5797;51.662;6.748;2023-07-22T05:33:52;12.13;;;7.07;;
11481;SDS011;5797;51.662;6.748;2023-07-22T05:36:21;16.73;;;6.90;;
11481;SDS011;5797;51.662;6.748;2023-07-22T05:38:49;12.87;;;7.10;;
11481;SDS011;5797;51.662;6.748;2023-07-22T05:41:18;16.33;;;7.80;;
11481;SDS011;5797;51.662;6.748;2023-07-22T05:43:48;11.50;;;7.00;;
11481;SDS011;5797;51.662;6.748;2023-07-22T05:46:16;13.90;;;7.90;;
11481;SDS011;5797;51.662;6.748;2023-07-22T05:48:45;10.27;;;6.77;;
11481;SDS011;5797;51.662;6.748;2023-07-22T05:51:14;14.20;;;7.00;;
11481;SDS011;5797;51.662;6.748;2023-07-22T05:53:42;17.40;;;7.17;;
11481;SDS011;5797;51.662;6.748;2023-07-22T05:56:11;13.23;;;7.43;;
11481;SDS011;5797;51.662;6.748;2023-07-22T05:58:39;12.47;;;7.23;;
11481;SDS011;5797;51.662;6.748;2023-07-22T06:01:09;10.67;;;6.67;;
11481;SDS011;5797;51.662;6.748;2023-07-22T06:03:39;11.23;;;6.67;;
11481;SDS011;5797;51.662;6.748;2023-07-22T06:06:07;13.03;;;7.23;;
11481;SDS011;5797;51.662;6.748;2023-07-22T06:08:36;12.93;;;7.20;;
11481;SDS011;5797;51.662;6.748;2023-07-22T06:11:05;13.03;;;7.40;;
11481;SDS011;5797;51.662;6.748;2023-07-22T06:13:34;13.87;;;7.43;;
11481;SDS011;5797;51.662;6.748;2023-07-22T06:16:02;13.97;;;7.40;;
11481;SDS011;5797;51.662;6.748;2023-07-22T06:18:32;15.47;;;7.50;;
11481;SDS011;5797;51.662;6.748;2023-07-22T06:21:01;11.40;;;6.77;;
11481;SDS011;5797;51.662;6.748;2023-07-22T06:23:30;13.17;;;6.77;;
11481;SDS011;5797;51.662;6.748;2023-07-22T06:25:58;13.23;;;6.93;;
11481;SDS011;5797;51.662;6.748;2023-07-22T06:28:27;15.63;;;6.67;;
11481;SDS011;5797;51.662;6.748;2023-07-22T06:30:55;13.83;;;7.60;;
11481;SDS011;5797;51.662;6.748;2023-07-22T06:33:24;17.20;;;7.27;;
11481;SDS011;5797;51.662;6.748;2023-07-22T06:35:54;11.40;;;6.93;;
11481;SDS011;5797;51.662;6.748;2023-07-22T06:38:22;17.87;;;7.53;;
11481;SDS011;5797;51.662;6.748;2023-07-22T06:40:52;13.80;;;7.80;;
11481;SDS011;5797;51.662;6.748;2023-07-22T06:43:20;10.63;;;6.90;;
11481;SDS011;5797;51.662;6.748;2023-07-22T06:45:49;15.03;;;7.73;;
11481;SDS011;5797;51.662;6.748;2023-07-22T06:48:17;13.07;;;7.57;;
11481;SDS011;5797;51.662;6.748;2023-07-22T06:50:49;14.57;;;8.03;;
11481;SDS011;5797;51.662;6.748;2023-07-22T06:53:19;14.17;;;7.13;;
11481;SDS011;5797;51.662;6.748;2023-07-22T06:55:48;11.53;;;7.07;;
11481;SDS011;5797;51.662;6.748;2023-07-22T06:58:17;16.10;;;7.70;;
11481;SDS011;5797;51.662;6.748;2023-07-22T07:00:46;13.17;;;7.83;;
11481;SDS011;5797;51.662;6.748;2023-07-22T07:03:15;13.07;;;7.80;;
11481;SDS011;5797;51.662;6.748;2023-07-22T07:05:43;14.17;;;7.27;;
11481;SDS011;5797;51.662;6.748;2023-07-22T07:08:13;12.20;;;7.10;;
11481;SDS011;5797;51.662;6.748;2023-07-22T07:10:43;12.53;;;7.23;;
11481;SDS011;5797;51.662;6.748;2023-07-22T07:13:11;15.33;;;7.07;;
11481;SDS011;5797;51.662;6.748;2023-07-22T07:15:40;13.63;;;7.70;;
11481;SDS011;5797;51.662;6.748;2023-07-22T07:18:08;13.90;;;7.53;;
11481;SDS011;5797;51.662;6.748;2023-07-22T07:20:37;14.77;;;7.37;;
11481;SDS011;5797;51.662;6.748;2023-07-22T07:23:06;11.90;;;7.10;;
11481;SDS011;5797;51.662;6.748;2023-07-22T07:25:36;12.27;;;7.93;;
11481;SDS011;5797;51.662;6.748;2023-07-22T07:28:06;16.13;;;8.23;;
11481;SDS011;5797;51.662;6.748;2023-07-22T07:30:35;12.83;;;7.43;;
11481;SDS011;5797;51.662;6.748;2023-07-22T07:33:03;18.57;;;7.37;;
11481;SDS011;5797;51.662;6.748;2023-07-22T07:35:32;13.97;;;7.90;;
11481;SDS011;5797;51.662;6.748;2023-07-22T07:38:00;12.00;;;7.10;;
11481;SDS011;5797;51.662;6.748;2023-07-22T07:40:30;11.10;;;6.80;;
11481;SDS011;5797;51.662;6.748;2023-07-22T07:42:59;17.37;;;8.23;;
11481;SDS011;5797;51.662;6.748;2023-07-22T07:45:29;14.27;;;7.90;;
11481;SDS011;5797;51.662;6.748;2023-07-22T07:47:58;12.03;;;7.23;;
11481;SDS011;5797;51.662;6.748;2023-07-22T07:50:26;13.80;;;6.57;;
11481;SDS011;5797;51.662;6.748;2023-07-22T07:52:55;12.33;;;6.23;;
11481;SDS011;5797;51.662;6.748;2023-07-22T07:55:23;12.07;;;7.20;;
11481;SDS011;5797;51.662;6.748;2023-07-22T07:57:52;10.57;;;7.00;;
11481;SDS011;5797;51.662;6.748;2023-07-22T08:00:20;9.97;;;6.17;;
11481;SDS011;5797;51.662;6.748;2023-07-22T08:02:50;13.33;;;7.17;;
11481;SDS011;5797;51.662;6.748;2023-07-22T08:05:19;9.47;;;6.23;;
11481;SDS011;5797;51.662;6.748;2023-07-22T08:07:47;8.93;;;6.00;;
11481;SDS011;5797;51.662;6.748;2023-07-22T08:10:16;10.23;;;5.93;;
11481;SDS011;5797;51.662;6.748;2023-07-22T08:12:45;11.63;;;6.13;;
11481;SDS011;5797;51.662;6.748;2023-07-22T08:15:13;12.77;;;6.37;;
11481;SDS011;5797;51.662;6.748;2023-07-22T08:17:42;12.90;;;6.10;;
11481;SDS011;5797;51.662;6.748;2023-07-22T08:20:12;9.40;;;6.17;;
11481;SDS011;5797;51.662;6.748;2023-07-22T08:22:41;19.03;;;7.93;;
11481;SDS011;5797;51.662;6.748;2023-07-22T08:25:09;9.30;;;5.90;;
11481;SDS011;5797;51.662;6.748;2023-07-22T08:27:38;12.67;;;5.67;;
11481;SDS011;5797;51.662;6.748;2023-07-22T08:30:07;8.77;;;5.90;;
11481;SDS011;5797;51.662;6.748;2023-07-22T08:32:36;10.37;;;5.87;;
11481;SDS011;5797;51.662;6.748;2023-07-22T08:35:05;10.13;;;6.67;;
11481;SDS011;5797;51.662;6.748;2023-07-22T08:37:36;10.80;;;6.60;;
11481;SDS011;5797;51.662;6.748;2023-07-22T08:40:05;10.67;;;6.03;;
11481;SDS011;5797;51.662;6.748;2023-07-22T08:42:37;10.20;;;5.87;;
11481;SDS011;5797;51.662;6.748;2023-07-22T08:45:07;9.30;;;5.50;;
11481;SDS011;5797;51.662;6.748;2023-07-22T08:47:38;11.57;;;5.70;;
11481;SDS011;5797;51.662;6.748;2023-07-22T08:50:07;9.57;;;5.53;;
11481;SDS011;5797;51.662;6.748;2023-07-22T08:52:38;10.83;;;6.17;;
11481;SDS011;5797;51.662;6.748;2023-07-22T08:55:07;9.13;;;5.87;;
11481;SDS011;5797;51.662;6.748;2023-07-22T08:57:37;10.53;;;5.70;;
11481;SDS011;5797;51.662;6.748;2023-07-22T09:00:06;6.67;;;4.97;;
11481;SDS011;5797;51.662;6.748;2023-07-22T09:02:36;8.57;;;5.00;;
11481;SDS011;5797;51.662;6.748;2023-07-22T09:05:07;8.97;;;5.47;;
11481;SDS011;5797;51.662;6.748;2023-07-22T09:07:36;8.37;;;5.17;;
11481;SDS011;5797;51.662;6.748;2023-07-22T09:10:07;9.70;;;5.77;;
11481;SDS011;5797;51.662;6.748;2023-07-22T09:12:37;8.53;;;5.00;;
11481;SDS011;5797;51.662;6.748;2023-07-22T09:15:08;9.60;;;5.03;;
11481;SDS011;5797;51.662;6.748;2023-07-22T09:17:39;8.70;;;5.13;;
11481;SDS011;5797;51.662;6.748;2023-07-22T09:20:09;11.73;;;5.80;;
11481;SDS011;5797;51.662;6.748;2023-07-22T09:22:44;10.53;;;5.20;;
11481;SDS011;5797;51.662;6.748;2023-07-22T09:25:17;8.17;;;4.93;;
11481;SDS011;5797;51.662;6.748;2023-07-22T09:27:47;8.30;;;5.10;;
11481;SDS011;5797;51.662;6.748;2023-07-22T09:30:20;7.60;;;4.53;;
11481;SDS011;5797;51.662;6.748;2023-07-22T09:32:54;5.80;;;4.60;;
11481;SDS011;5797;51.662;6.748;2023-07-22T09:35:28;8.77;;;5.00;;
11481;SDS011;5797;51.662;6.748;2023-07-22T09:38:05;8.73;;;4.87;;
11481;SDS011;5797;51.662;6.748;2023-07-22T09:40:35;9.80;;;4.53;;
11481;SDS011;5797;51.662;6.748;2023-07-22T09:43:09;8.00;;;4.70;;
11481;SDS011;5797;51.662;6.748;2023-07-22T09:45:41;8.47;;;4.53;;
11481;SDS011;5797;51.662;6.748;2023-07-22T09:48:23;6.13;;;4.73;;
11481;SDS011;5797;51.662;6.748;2023-07-22T09:50:57;10.93;;;5.10;;
11481;SDS011;5797;51.662;6.748;2023-07-22T09:53:27;11.40;;;4.50;;
11481;SDS011;5797;51.662;6.748;2023-07-22T09:56:02;9.83;;;4.63;;
11481;SDS011;5797;51.662;6.748;2023-07-22T09:58:32;10.43;;;4.50;;
11481;SDS011;5797;51.662;6.748;2023-07-22T10:01:02;6.77;;;4.70;;
11481;SDS011;5797;51.662;6.748;2023-07-22T10:03:34;7.07;;;4.67;;
11481;SDS011;5797;51.662;6.748;2023-07-22T10:06:07;8.63;;;5.10;;
11481;SDS011;5797;51.662;6.748;2023-07-22T10:08:39;8.23;;;4.83;;
11481;SDS011;5797;51.662;6.748;2023-07-22T10:11:11;7.27;;;4.97;;
11481;SDS011;5797;51.662;6.748;2023-07-22T10:13:40;7.00;;;4.43;;
11481;SDS011;5797;51.662;6.748;2023-07-22T10:16:10;7.87;;;4.67;;
11481;SDS011;5797;51.662;6.748;2023-07-22T10:18:40;6.70;;;4.63;;
11481;SDS011;5797;51.662;6.748;2023-07-22T10:21:12;19.27;;;3.60;;
11481;SDS011;5797;51.662;6.748;2023-07-22T10:23:44;7.03;;;4.00;;
11481;SDS011;5797;51.662;6.748;2023-07-22T10:26:15;6.83;;;3.60;;
11481;SDS011;5797;51.662;6.748;2023-07-22T10:28:52;4.30;;;3.60;;
11481;SDS011;5797;51.662;6.748;2023-07-22T10:31:21;4.50;;;3.27;;
11481;SDS011;5797;51.662;6.748;2023-07-22T10:33:50;7.23;;;3.70;;
11481;SDS011;5797;51.662;6.748;2023-07-22T10:36:19;4.60;;;3.47;;
11481;SDS011;5797;51.662;6.748;2023-07-22T10:38:56;9.33;;;4.03;;
11481;SDS011;5797;51.662;6.748;2023-07-22T10:41:29;15.23;;;3.50;;
11481;SDS011;5797;51.662;6.748;2023-07-22T10:43:58;3.78;;;3.17;;
11481;SDS011;5797;51.662;6.748;2023-07-22T10:46:32;5.53;;;3.00;;
11481;SDS011;5797;51.662;6.748;2023-07-22T10:49:09;8.77;;;3.40;;
11481;SDS011;5797;51.662;6.748;2023-07-22T10:51:39;6.10;;;3.60;;
11481;SDS011;5797;51.662;6.748;2023-07-22T10:54:12;5.13;;;3.03;;
11481;SDS011;5797;51.662;6.748;2023-07-22T10:56:42;4.03;;;2.95;;
11481;SDS011;5797;51.662;6.748;2023-07-22T10:59:11;5.18;;;3.13;;
11481;SDS011;5797;51.662;6.748;2023-07-22T11:01:40;7.00;;;3.03;;
11481;SDS011;5797;51.662;6.748;2023-07-22T11:04:11;5.32;;;3.60;;
11481;SDS011;5797;51.662;6.748;2023-07-22T11:06:53;5.00;;;3.20;;
11481;SDS011;5797;51.662;6.748;2023-07-22T11:09:37;4.55;;;3.10;;
11481;SDS011;5797;51.662;6.748;2023-07-22T11:12:07;9.30;;;3.20;;
11481;SDS011;5797;51.662;6.748;2023-07-22T11:14:38;3.67;;;2.78;;
11481;SDS011;5797;51.662;6.748;2023-07-22T11:17:08;4.13;;;2.83;;
11481;SDS011;5797;51.662;6.748;2023-07-22T11:19:38;8.32;;;3.35;;
11481;SDS011;5797;51.662;6.748;2023-07-22T11:22:06;7.63;;;3.50;;
11481;SDS011;5797;51.662;6.748;2023-07-22T11:24:36;5.20;;;3.30;;
11481;SDS011;5797;51.662;6.748;2023-07-22T11:27:05;4.13;;;3.13;;
11481;SDS011;5797;51.662;6.748;2023-07-22T11:29:35;4.70;;;3.00;;
11481;SDS011;5797;51.662;6.748;2023-07-22T11:32:05;3.65;;;2.70;;
11481;SDS011;5797;51.662;6.748;2023-07-22T11:34:34;4.53;;;3.30;;
11481;SDS011;5797;51.662;6.748;2023-07-22T11:37:03;4.25;;;2.72;;
11481;SDS011;5797;51.662;6.748;2023-07-22T11:39:33;4.50;;;3.05;;
11481;SDS011;5797;51.662;6.748;2023-07-22T11:42:04;3.78;;;2.72;;
11481;SDS011;5797;51.662;6.748;2023-07-22T11:44:33;6.85;;;2.90;;
11481;SDS011;5797;51.662;6.748;2023-07-22T11:47:02;4.88;;;2.92;;
11481;SDS011;5797;51.662;6.748;2023-07-22T11:49:33;4.28;;;2.90;;
11481;SDS011;5797;51.662;6.748;2023-07-22T11:52:03;4.53;;;2.75;;
11481;SDS011;5797;51.662;6.748;2023-07-22T11:54:34;4.00;;;3.00;;
11481;SDS011;5797;51.662;6.748;2023-07-22T11:57:12;3.85;;;2.58;;
11481;SDS011;5797;51.662;6.748;2023-07-22T11:59:43;3.30;;;2.50;;
11481;SDS011;5797;51.662;6.748;2023-07-22T12:02:13;4.97;;;3.20;;
11481;SDS011;5797;51.662;6.748;2023-07-22T12:04:42;7.53;;;2.53;;
11481;SDS011;5797;51.662;6.748;2023-07-22T12:07:24;3.78;;;2.83;;
11481;SDS011;5797;51.662;6.748;2023-07-22T12:09:53;5.93;;;2.58;;
11481;SDS011;5797;51.662;6.748;2023-07-22T12:12:32;4.68;;;3.15;;
11481;SDS011;5797;51.662;6.748;2023-07-22T12:15:08;4.10;;;2.88;;
11481;SDS011;5797;51.662;6.748;2023-07-22T12:17:44;3.40;;;2.60;;
11481;SDS011;5797;51.662;6.748;2023-07-22T12:20:14;3.85;;;2.72;;
11481;SDS011;5797;51.662;6.748;2023-07-22T12:22:42;6.25;;;2.85;;
11481;SDS011;5797;51.662;6.748;2023-07-22T12:25:11;5.00;;;2.55;;
11481;SDS011;5797;51.662;6.748;2023-07-22T12:27:41;3.83;;;2.70;;
11481;SDS011;5797;51.662;6.748;2023-07-22T12:30:09;3.55;;;2.78;;
11481;SDS011;5797;51.662;6.748;2023-07-22T12:32:39;4.55;;;2.28;;
11481;SDS011;5797;51.662;6.748;2023-07-22T12:35:07;4.95;;;2.63;;
11481;SDS011;5797;51.662;6.748;2023-07-22T12:37:36;3.78;;;2.45;;
11481;SDS011;5797;51.662;6.748;2023-07-22T12:40:05;6.13;;;2.30;;
11481;SDS011;5797;51.662;6.748;2023-07-22T12:42:36;4.57;;;2.25;;
11481;SDS011;5797;51.662;6.748;2023-07-22T12:45:07;3.50;;;2.35;;
11481;SDS011;5797;51.662;6.748;2023-07-22T12:47:37;3.30;;;2.17;;
11481;SDS011;5797;51.662;6.748;2023-07-22T12:50:06;2.55;;;2.15;;
11481;SDS011;5797;51.662;6.748;2023-07-22T12:52:35;2.80;;;1.98;;
11481;SDS011;5797;51.662;6.748;2023-07-22T12:55:05;2.63;;;2.20;;
11481;SDS011;5797;51.662;6.748;2023-07-22T12:57:34;5.07;;;2.60;;
11481;SDS011;5797;51.662;6.748;2023-07-22T13:00:04;3.67;;;1.85;;
11481;SDS011;5797;51.662;6.748;2023-07-22T13:02:38;2.85;;;1.90;;
11481;SDS011;5797;51.662;6.748;2023-07-22T13:05:08;2.65;;;1.90;;
11481;SDS011;5797;51.662;6.748;2023-07-22T13:07:38;4.93;;;2.40;;
11481;SDS011;5797;51.662;6.748;2023-07-22T13:10:07;2.92;;;2.20;;
11481;SDS011;5797;51.662;6.748;2023-07-22T13:12:44;3.30;;;2.17;;
11481;SDS011;5797;51.662;6.748;2023-07-22T13:15:14;4.88;;;2.33;;
11481;SDS011;5797;51.662;6.748;2023-07-22T13:17:42;3.65;;;2.08;;
11481;SDS011;5797;51.662;6.748;2023-07-22T13:20:20;3.72;;;2.25;;
11481;SDS011;5797;51.662;6.748;2023-07-22T13:23:16;5.78;;;2.50;;
11481;SDS011;5797;51.662;6.748;2023-07-22T13:25:44;5.10;;;2.30;;
11481;SDS011;5797;51.662;6.748;2023-07-22T13:28:13;3.55;;;2.30;;
11481;SDS011;5797;51.662;6.748;2023-07-22T13:30:43;6.05;;;2.58;;
11481;SDS011;5797;51.662;6.748;2023-07-22T13:33:12;4.03;;;2.00;;
11481;SDS011;5797;51.662;6.748;2023-07-22T13:35:40;3.55;;;2.50;;
11481;SDS011;5797;51.662;6.748;2023-07-22T13:38:09;3.33;;;2.22;;
11481;SDS011;5797;51.662;6.748;2023-07-22T13:40:37;2.35;;;2.00;;
11481;SDS011;5797;51.662;6.748;2023-07-22T13:43:06;4.43;;;2.03;;
11481;SDS011;5797;51.662;6.748;2023-07-22T13:45:34;6.68;;;2.67;;
11481;SDS011;5797;51.662;6.748;2023-07-22T13:48:04;2.55;;;2.10;;
11481;SDS011;5797;51.662;6.748;2023-07-22T13:50:33;2.65;;;2.13;;
11481;SDS011;5797;51.662;6.748;2023-07-22T13:53:03;2.92;;;2.22;;
11481;SDS011;5797;51.662;6.748;2023-07-22T13:55:31;2.67;;;1.90;;
11481;SDS011;5797;51.662;6.748;2023-07-22T13:58:00;3.25;;;2.03;;
11481;SDS011;5797;51.662;6.748;2023-07-22T14:00:28;3.50;;;2.00;;
11481;SDS011;5797;51.662;6.748;2023-07-22T14:02:57;4.00;;;2.30;;
11481;SDS011;5797;51.662;6.748;2023-07-22T14:05:28;2.28;;;1.90;;
11481;SDS011;5797;51.662;6.748;2023-07-22T14:07:58;2.30;;;1.92;;
11481;SDS011;5797;51.662;6.748;2023-07-22T14:10:26;2.10;;;1.77;;
11481;SDS011;5797;51.662;6.748;2023-07-22T14:12:55;2.20;;;1.90;;
11481;SDS011;5797;51.662;6.748;2023-07-22T14:15:23;3.20;;;2.30;;
11481;SDS011;5797;51.662;6.748;2023-07-22T14:17:52;2.90;;;2.38;;
11481;SDS011;5797;51.662;6.748;2023-07-22T14:20:20;3.72;;;2.50;;
11481;SDS011;5797;51.662;6.748;2023-07-22T14:22:50;7.63;;;2.42;;
11481;SDS011;5797;51.662;6.748;2023-07-22T14:25:19;3.75;;;2.28;;
11481;SDS011;5797;51.662;6.748;2023-07-22T14:27:47;3.15;;;2.00;;
11481;SDS011;5797;51.662;6.748;2023-07-22T14:30:16;3.70;;;2.20;;
11481;SDS011;5797;51.662;6.748;2023-07-22T14:32:44;2.50;;;2.00;;
11481;SDS011;5797;51.662;6.748;2023-07-22T14:35:13;2.55;;;2.10;;
11481;SDS011;5797;51.662;6.748;2023-07-22T14:37:42;3.53;;;2.42;;
11481;SDS011;5797;51.662;6.748;2023-07-22T14:40:12;2.90;;;2.17;;
11481;SDS011;5797;51.662;6.748;2023-07-22T14:42:41;2.35;;;1.98;;
11481;SDS011;5797;51.662;6.748;2023-07-22T14:45:10;2.78;;;2.38;;
11481;SDS011;5797;51.662;6.748;2023-07-22T14:47:38;2.60;;;2.08;;
11481;SDS011;5797;51.662;6.748;2023-07-22T14:50:07;2.58;;;2.03;;
11481;SDS011;5797;51.662;6.748;2023-07-22T14:52:36;3.13;;;2.08;;
11481;SDS011;5797;51.662;6.748;2023-07-22T14:55:05;3.92;;;2.33;;
11481;SDS011;5797;51.662;6.748;2023-07-22T14:57:35;2.55;;;2.10;;
11481;SDS011;5797;51.662;6.748;2023-07-22T15:00:05;2.55;;;1.88;;
11481;SDS011;5797;51.662;6.748;2023-07-22T15:02:34;6.97;;;2.80;;
11481;SDS011;5797;51.662;6.748;2023-07-22T15:05:03;3.53;;;2.30;;
11481;SDS011;5797;51.662;6.748;2023-07-22T15:07:31;5.72;;;2.20;;
11481;SDS011;5797;51.662;6.748;2023-07-22T15:10:00;2.83;;;1.98;;